Porto Seguro, Brazil
Current Conditions -  °F | °C
As of 10:00 AM on Friday 24 Oct 2014 (Local Time) from SBPS Reporting Station
Scattered Clouds Scattered Clouds  
Wind Chill: 79°   Ceiling: Unl
Heat Index: 81°   Visibility: 6mi
Dew Point: 68°   Wind: 7mph
Humidity: 69%   Direction: 140°SE
Pressure: 30.06"   Gusts: NA
Location:  16.43°S, 39.08°W
Report Text: SBPS 241300Z 14006KT 9999 SCT020 26/20 Q1018
Loading
Personal Weather Stations






























Interactive Weather Map
Tropical Storm Tracking
New forecast layout! Learn more

10-Day Weather Forecast

Advertisements
Track Severe Weather on mobile